Scott Bar, California
Current Conditions -  °F | °C
As of 3:53 PM on Friday 31 Oct 2014 (Local Time) from KSIY Reporting Station
Overcast Overcast  
Wind Chill: 10°   Ceiling: 6500
Heat Index: 10°   Visibility: 10mi
Dew Point:   Wind: 0mph
Humidity: 71%   Direction: NA
Pressure: 29.83"   Gusts: NA
Location:  41.74°N, 123°W
Report Text: KSIY 312253Z AUTO 00000KT 10SM BKN065 OVC100 10/05 A2983 RMK AO2 SLP106 T01000050
Loading
Personal Weather Stations






























Interactive Weather Map
Tropical Storm Tracking
New forecast layout! Learn more

10-Day Weather Forecast

Advertisements
Track Severe Weather on mobile